createdAt,value
2023-05-14T00:01:38.150Z,94.18
2023-05-14T00:04:06.694Z,94.56
2023-05-14T00:06:36.074Z,94.48
2023-05-14T00:09:04.455Z,94.08
2023-05-14T00:11:32.569Z,94.08
2023-05-14T00:14:00.544Z,94.87
2023-05-14T00:16:28.559Z,95.09
2023-05-14T00:18:56.680Z,94.77
2023-05-14T00:21:24.656Z,94.94
2023-05-14T00:23:53.989Z,95.01
2023-05-14T00:26:24.008Z,94.48
2023-05-14T00:28:52.044Z,93.94
2023-05-14T00:31:20.219Z,94.10
2023-05-14T00:33:48.227Z,94.26
2023-05-14T00:36:16.324Z,94.53
2023-05-14T00:38:44.241Z,93.77
2023-05-14T00:41:13.942Z,94.06
2023-05-14T00:43:41.888Z,94.32
2023-05-14T00:46:12.512Z,93.98
2023-05-14T00:48:40.536Z,94.93
2023-05-14T00:51:09.818Z,94.84
2023-05-14T00:53:37.997Z,95.14
2023-05-14T00:56:07.173Z,95.28
2023-05-14T00:58:41.812Z,96.27
2023-05-14T01:01:10.345Z,96.01
2023-05-14T01:03:39.097Z,95.32
2023-05-14T01:06:14.301Z,95.75
2023-05-14T01:08:52.262Z,95.59
2023-05-14T01:11:23.773Z,95.03
2023-05-14T01:14:04.804Z,95.07
2023-05-14T01:16:35.513Z,95.14
2023-05-14T01:19:06.871Z,95.11
2023-05-14T01:21:40.497Z,94.29
2023-05-14T01:24:09.423Z,94.34
2023-05-14T01:26:37.917Z,94.49
2023-05-14T01:29:14.972Z,94.03
2023-05-14T01:31:45.801Z,93.36
2023-05-14T01:34:15.763Z,93.41
2023-05-14T01:36:45.911Z,93.98
2023-05-14T01:39:15.970Z,94.35
2023-05-14T01:41:45.234Z,93.89
2023-05-14T01:44:13.911Z,93.41
2023-05-14T01:46:41.994Z,93.64
2023-05-14T01:49:10.376Z,93.38
2023-05-14T01:51:38.435Z,93.63
2023-05-14T01:54:07.729Z,93.41
2023-05-14T01:56:35.792Z,93.27
2023-05-14T01:59:06.548Z,92.35
2023-05-14T02:01:35.330Z,92.98
2023-05-14T02:04:03.849Z,92.56
2023-05-14T02:06:32.339Z,92.60
2023-05-14T02:09:00.362Z,92.13
2023-05-14T02:11:30.069Z,92.38
2023-05-14T02:13:58.143Z,92.40
2023-05-14T02:16:26.295Z,92.54
2023-05-14T02:18:54.307Z,93.08
2023-05-14T02:21:22.360Z,92.62
2023-05-14T02:23:51.197Z,92.05
2023-05-14T02:26:22.402Z,92.51
2023-05-14T02:28:52.016Z,92.75
2023-05-14T02:31:20.151Z,92.35
2023-05-14T02:33:48.118Z,92.17
2023-05-14T02:36:16.124Z,91.87
2023-05-14T02:38:44.320Z,92.99
2023-05-14T02:41:12.217Z,93.64
2023-05-14T02:43:40.115Z,93.37
2023-05-14T02:46:09.551Z,93.57
2023-05-14T02:48:40.966Z,93.15
2023-05-14T02:51:09.442Z,93.01
2023-05-14T02:53:37.387Z,93.75
2023-05-14T02:56:05.877Z,93.23
2023-05-14T02:58:33.933Z,93.34
2023-05-14T03:01:02.013Z,93.55
2023-05-14T03:03:32.229Z,93.36
2023-05-14T03:06:00.872Z,93.57
2023-05-14T03:08:29.035Z,93.50
2023-05-14T03:10:57.120Z,93.31
2023-05-14T03:13:25.192Z,93.30
2023-05-14T03:15:57.072Z,92.87
2023-05-14T03:18:31.309Z,93.36
2023-05-14T03:21:00.771Z,93.64
2023-05-14T03:23:28.746Z,94.28
2023-05-14T03:25:56.794Z,94.54
2023-05-14T03:28:25.240Z,94.29
2023-05-14T03:30:53.297Z,94.46
2023-05-14T03:33:21.379Z,94.50
2023-05-14T03:35:49.407Z,94.35
2023-05-14T03:38:18.745Z,94.61
2023-05-14T03:40:46.784Z,94.67
2023-05-14T03:43:15.286Z,94.54
2023-05-14T03:45:46.440Z,94.40
2023-05-14T03:48:14.500Z,94.17
2023-05-14T03:50:42.801Z,94.12
2023-05-14T03:53:10.780Z,94.70
2023-05-14T03:55:41.012Z,94.04
2023-05-14T03:58:13.844Z,94.28
2023-05-14T04:00:42.462Z,94.25
2023-05-14T04:03:11.270Z,94.31
2023-05-14T04:05:39.450Z,93.71
2023-05-14T04:08:07.462Z,93.90
2023-05-14T04:10:35.767Z,93.35
2023-05-14T04:13:05.398Z,94.35
2023-05-14T04:15:33.586Z,94.55
2023-05-14T04:18:01.565Z,94.51
2023-05-14T04:20:29.577Z,94.34
2023-05-14T04:22:57.630Z,94.85
2023-05-14T04:25:25.519Z,94.59
2023-05-14T04:27:53.500Z,94.55
2023-05-14T04:30:23.204Z,94.15
2023-05-14T04:32:51.951Z,94.42
2023-05-14T04:35:22.645Z,94.37
2023-05-14T04:37:52.180Z,94.27
2023-05-14T04:40:20.212Z,93.65
2023-05-14T04:42:48.282Z,94.24
2023-05-14T04:45:17.583Z,94.68
2023-05-14T04:47:47.534Z,94.77
2023-05-14T04:50:15.619Z,94.73
2023-05-14T04:52:43.640Z,94.30
2023-05-14T04:55:11.570Z,94.12
2023-05-14T04:57:39.536Z,94.26
2023-05-14T05:00:10.200Z,94.10
2023-05-14T05:02:38.482Z,94.26
2023-05-14T05:05:08.841Z,93.38
2023-05-14T05:07:36.915Z,93.73
2023-05-14T05:10:05.041Z,93.96
2023-05-14T05:12:33.005Z,93.48
2023-05-14T05:15:01.071Z,93.51
2023-05-14T05:17:31.986Z,93.72
2023-05-14T05:19:59.982Z,93.46
2023-05-14T05:22:31.559Z,93.59
2023-05-14T05:24:59.884Z,93.76
2023-05-14T05:27:28.387Z,93.77
2023-05-14T05:29:56.365Z,93.37
2023-05-14T05:32:24.719Z,93.41
2023-05-14T05:34:53.329Z,93.19
2023-05-14T05:37:24.534Z,92.95
2023-05-14T05:39:54.079Z,93.04
2023-05-14T05:42:22.543Z,93.37
2023-05-14T05:44:50.592Z,92.89
2023-05-14T05:47:18.626Z,93.37
2023-05-14T05:49:46.566Z,93.78
2023-05-14T05:52:15.043Z,93.18
2023-05-14T05:54:43.074Z,93.38
2023-05-14T05:57:12.516Z,93.38
2023-05-14T05:59:40.522Z,93.07
2023-05-14T06:02:08.630Z,92.72
2023-05-14T06:04:36.657Z,92.72
2023-05-14T06:07:04.877Z,91.75
2023-05-14T06:09:32.833Z,91.94
2023-05-14T06:12:00.892Z,91.19
2023-05-14T06:14:30.566Z,90.71
2023-05-14T06:16:58.740Z,90.86
2023-05-14T06:19:26.773Z,90.63
2023-05-14T06:21:57.598Z,91.23
2023-05-14T06:24:25.617Z,90.70
2023-05-14T06:26:53.813Z,90.31
2023-05-14T06:29:21.819Z,89.65
2023-05-14T06:31:51.255Z,91.04
2023-05-14T06:34:19.651Z,90.86
2023-05-14T06:36:47.537Z,90.50
2023-05-14T06:39:18.273Z,91.27
2023-05-14T06:41:46.276Z,91.04
2023-05-14T06:44:14.267Z,90.67
2023-05-14T06:46:42.164Z,90.40
2023-05-14T06:49:11.822Z,90.37
2023-05-14T06:51:40.821Z,90.51
2023-05-14T06:54:08.758Z,89.64
2023-05-14T06:56:36.719Z,89.70
2023-05-14T06:59:04.703Z,89.41
2023-05-14T07:01:32.716Z,88.61
2023-05-14T07:04:00.971Z,88.83
2023-05-14T07:06:30.866Z,88.03
2023-05-14T07:08:58.865Z,88.26
2023-05-14T07:11:26.819Z,87.97
2023-05-14T07:13:55.127Z,87.16
2023-05-14T07:16:23.075Z,86.08
2023-05-14T07:18:51.153Z,86.34
2023-05-14T07:21:19.480Z,86.50
2023-05-14T07:23:48.875Z,87.26
2023-05-14T07:26:16.775Z,86.20
2023-05-14T07:28:44.784Z,84.14
2023-05-14T07:31:12.734Z,85.73
2023-05-14T07:33:40.792Z,85.72
2023-05-14T07:36:09.220Z,85.97
2023-05-14T07:38:37.310Z,86.10
2023-05-14T07:41:06.875Z,85.34
2023-05-14T07:43:34.868Z,84.86
2023-05-14T07:46:02.814Z,83.43
2023-05-14T07:48:30.781Z,83.17
2023-05-14T07:50:58.729Z,82.15
2023-05-14T07:53:26.914Z,83.68
2023-05-14T07:55:54.911Z,83.98
2023-05-14T07:58:25.167Z,83.22
2023-05-14T08:00:53.378Z,83.47
2023-05-14T08:03:21.439Z,81.03
2023-05-14T08:05:49.526Z,78.50
2023-05-14T08:08:17.520Z,77.83
2023-05-14T08:10:45.959Z,76.04
2023-05-14T08:13:13.979Z,74.49
2023-05-14T08:15:43.307Z,73.05
2023-05-14T08:18:11.258Z,73.07
2023-05-14T08:20:39.276Z,73.43
2023-05-14T08:23:07.448Z,74.69
2023-05-14T08:25:35.510Z,74.84
2023-05-14T08:28:03.437Z,75.80
2023-05-14T08:30:31.493Z,75.79
2023-05-14T08:33:01.001Z,76.20
2023-05-14T08:35:29.147Z,76.94
2023-05-14T08:37:57.495Z,75.47
2023-05-14T08:40:28.143Z,74.63
2023-05-14T08:42:58.287Z,74.21
2023-05-14T08:45:33.981Z,75.49
2023-05-14T08:48:08.842Z,77.20
2023-05-14T08:50:37.506Z,77.79
2023-05-14T08:53:05.634Z,77.74
2023-05-14T08:55:34.315Z,77.53
2023-05-14T08:58:02.573Z,77.70
2023-05-14T09:00:30.927Z,75.79
2023-05-14T09:03:00.557Z,76.58
2023-05-14T09:05:30.036Z,76.68
2023-05-14T09:07:58.314Z,76.60
2023-05-14T09:10:26.522Z,76.22
2023-05-14T09:12:54.899Z,75.94
2023-05-14T09:15:23.849Z,76.35
2023-05-14T09:17:53.219Z,76.32
2023-05-14T09:20:22.725Z,74.35
2023-05-14T09:22:56.701Z,75.33
2023-05-14T09:25:28.592Z,74.92
2023-05-14T09:27:58.997Z,74.08
2023-05-14T09:30:27.454Z,75.18
2023-05-14T09:32:56.377Z,74.35
2023-05-14T09:35:25.872Z,75.37
2023-05-14T09:37:56.127Z,75.22
2023-05-14T09:40:25.410Z,74.25
2023-05-14T09:42:53.631Z,74.41
2023-05-14T09:45:21.551Z,75.10
2023-05-14T09:47:49.654Z,75.93
2023-05-14T09:50:17.678Z,75.86
2023-05-14T09:52:45.805Z,75.95
2023-05-14T09:55:16.132Z,76.49
2023-05-14T09:57:46.608Z,75.98
2023-05-14T10:00:16.155Z,75.76
2023-05-14T10:02:46.648Z,75.85
2023-05-14T10:05:15.926Z,75.04
2023-05-14T10:07:48.087Z,75.08
2023-05-14T10:10:20.730Z,74.41
2023-05-14T10:12:53.478Z,74.47
2023-05-14T10:15:28.309Z,74.98
2023-05-14T10:18:00.326Z,73.69
2023-05-14T10:20:29.753Z,72.85
2023-05-14T10:22:59.463Z,73.10
2023-05-14T10:25:29.226Z,73.11
2023-05-14T10:27:57.932Z,73.61
2023-05-14T10:30:26.293Z,71.34
2023-05-14T10:33:08.386Z,71.56
2023-05-14T10:35:58.504Z,70.27
2023-05-14T10:38:28.552Z,71.61
2023-05-14T10:41:03.955Z,69.03
2023-05-14T10:43:41.196Z,69.57
2023-05-14T10:46:10.756Z,70.51
2023-05-14T10:48:41.459Z,68.12
2023-05-14T10:51:13.198Z,68.43
2023-05-14T10:53:42.896Z,66.58
2023-05-14T10:56:14.064Z,67.37
2023-05-14T10:58:46.511Z,67.97
2023-05-14T11:01:15.106Z,66.98
2023-05-14T11:03:45.058Z,66.59
2023-05-14T11:06:14.583Z,66.05
2023-05-14T11:08:44.008Z,65.00
2023-05-14T11:11:14.023Z,65.67
2023-05-14T11:13:43.137Z,62.57
2023-05-14T11:16:22.594Z,60.28
2023-05-14T11:19:02.057Z,61.95
2023-05-14T11:21:30.945Z,64.54
2023-05-14T11:24:00.903Z,64.92
2023-05-14T11:26:30.785Z,61.37
2023-05-14T11:28:59.408Z,62.28
2023-05-14T11:31:27.858Z,62.16
2023-05-14T11:33:56.336Z,60.51
2023-05-14T11:36:24.400Z,60.60
2023-05-14T11:38:52.728Z,62.12
2023-05-14T11:41:23.191Z,61.03
2023-05-14T11:43:52.942Z,59.85
2023-05-14T11:46:21.878Z,60.04
2023-05-14T11:48:54.462Z,61.11
2023-05-14T11:51:42.609Z,59.19
2023-05-14T11:54:20.261Z,57.80
2023-05-14T11:57:10.628Z,56.12
2023-05-14T12:00:02.562Z,56.86
2023-05-14T12:02:47.396Z,57.23
2023-05-14T12:05:18.951Z,54.82
2023-05-14T12:07:49.759Z,54.92
2023-05-14T12:10:20.225Z,53.59
2023-05-14T12:12:56.660Z,54.36
2023-05-14T12:15:36.757Z,56.02
2023-05-14T12:18:23.506Z,55.12
2023-05-14T12:20:53.222Z,51.62
2023-05-14T12:23:27.535Z,51.95
2023-05-14T12:26:03.658Z,52.69
2023-05-14T12:28:55.076Z,53.15
2023-05-14T12:31:43.098Z,54.20
2023-05-14T12:34:14.279Z,52.17
2023-05-14T12:36:49.572Z,51.64
2023-05-14T12:39:21.910Z,53.70
2023-05-14T12:41:50.343Z,51.37
2023-05-14T12:44:37.728Z,51.79
2023-05-14T12:47:08.141Z,52.39
2023-05-14T12:49:41.001Z,52.78
2023-05-14T12:52:26.040Z,52.29
2023-05-14T12:55:02.875Z,52.39
2023-05-14T12:57:36.567Z,52.89
2023-05-14T13:00:07.331Z,52.43
2023-05-14T13:02:42.373Z,52.38
2023-05-14T13:05:27.899Z,51.17
2023-05-14T13:07:56.100Z,52.38
2023-05-14T13:10:24.845Z,52.41
2023-05-14T13:12:52.979Z,52.28
2023-05-14T13:15:21.052Z,52.63
2023-05-14T13:17:51.294Z,53.86
2023-05-14T13:20:19.301Z,54.01
2023-05-14T13:22:47.511Z,53.15
2023-05-14T13:25:15.936Z,52.49
2023-05-14T13:27:46.969Z,52.10
2023-05-14T13:30:15.268Z,49.90
2023-05-14T13:32:44.711Z,49.24
2023-05-14T13:35:15.000Z,50.14
2023-05-14T13:37:44.751Z,49.67
2023-05-14T13:40:15.043Z,50.40
2023-05-14T13:42:43.004Z,51.56
2023-05-14T13:45:11.886Z,51.33
2023-05-14T13:47:42.631Z,53.24
2023-05-14T13:50:11.306Z,53.51
2023-05-14T13:52:40.873Z,53.59
2023-05-14T13:55:09.747Z,53.48
2023-05-14T13:57:39.793Z,54.51
2023-05-14T14:00:09.614Z,54.20
2023-05-14T14:02:37.972Z,53.92
2023-05-14T14:05:06.841Z,55.07
2023-05-14T14:07:35.122Z,54.24
2023-05-14T14:10:05.016Z,55.47
2023-05-14T14:12:36.206Z,56.36
2023-05-14T14:15:04.638Z,56.38
2023-05-14T14:17:35.303Z,56.78
2023-05-14T14:20:12.832Z,56.85
2023-05-14T14:22:44.393Z,57.06
2023-05-14T14:25:14.251Z,55.38
2023-05-14T14:27:42.903Z,55.98
2023-05-14T14:30:15.797Z,55.91
2023-05-14T14:32:47.398Z,55.34
2023-05-14T14:35:19.671Z,56.30
2023-05-14T14:37:54.380Z,56.31
2023-05-14T14:40:24.190Z,54.94
2023-05-14T14:42:54.604Z,53.24
2023-05-14T14:45:23.031Z,52.50
2023-05-14T14:47:51.892Z,51.20
2023-05-14T14:50:20.003Z,51.07
2023-05-14T14:52:48.154Z,52.13
2023-05-14T14:55:16.228Z,53.10
2023-05-14T14:57:48.157Z,52.75
2023-05-14T15:00:19.820Z,53.82
2023-05-14T15:02:47.907Z,54.24
2023-05-14T15:05:16.135Z,54.50
2023-05-14T15:07:50.001Z,55.56
2023-05-14T15:10:18.010Z,55.68
2023-05-14T15:12:47.437Z,55.27
2023-05-14T15:15:15.395Z,56.29
2023-05-14T15:17:45.974Z,56.21
2023-05-14T15:20:14.437Z,53.99
2023-05-14T15:22:45.357Z,53.90
2023-05-14T15:25:13.584Z,53.79
2023-05-14T15:27:44.454Z,53.54
2023-05-14T15:30:17.149Z,53.22
2023-05-14T15:32:46.467Z,54.01
2023-05-14T15:35:15.026Z,55.31
2023-05-14T15:37:44.692Z,55.50
2023-05-14T15:40:14.855Z,54.71
2023-05-14T15:42:44.177Z,54.08
2023-05-14T15:45:15.137Z,53.46
2023-05-14T15:47:44.248Z,53.69
2023-05-14T15:50:14.290Z,54.05
2023-05-14T15:52:42.719Z,51.80
2023-05-14T15:55:13.460Z,51.48
2023-05-14T15:57:41.745Z,52.52
2023-05-14T16:00:11.346Z,52.83
2023-05-14T16:02:41.485Z,51.92
2023-05-14T16:05:12.498Z,51.59
2023-05-14T16:07:40.807Z,51.77
2023-05-14T16:10:09.827Z,52.75
2023-05-14T16:12:37.894Z,52.83
2023-05-14T16:15:07.187Z,54.14
2023-05-14T16:17:37.258Z,54.09
2023-05-14T16:20:09.776Z,53.05
2023-05-14T16:22:38.067Z,53.72
2023-05-14T16:25:10.614Z,53.92
2023-05-14T16:27:40.642Z,54.19
2023-05-14T16:30:12.870Z,52.55
2023-05-14T16:32:58.884Z,53.14
2023-05-14T16:35:32.291Z,52.40
2023-05-14T16:38:02.837Z,53.66
2023-05-14T16:40:34.973Z,53.68
2023-05-14T16:43:03.094Z,53.21
2023-05-14T16:45:32.723Z,53.79
2023-05-14T16:48:01.441Z,52.46
2023-05-14T16:50:30.989Z,53.17
2023-05-14T16:52:59.059Z,53.39
2023-05-14T16:55:27.255Z,50.70
2023-05-14T16:57:55.532Z,51.85
2023-05-14T17:00:23.724Z,51.91
2023-05-14T17:02:54.301Z,50.77
2023-05-14T17:05:22.865Z,52.14
2023-05-14T17:07:52.457Z,52.24
2023-05-14T17:10:20.490Z,51.28
2023-05-14T17:12:48.383Z,51.34
2023-05-14T17:15:16.457Z,51.96
2023-05-14T17:17:44.361Z,50.26
2023-05-14T17:20:15.925Z,50.82
2023-05-14T17:22:44.803Z,51.39
2023-05-14T17:25:14.221Z,52.36
2023-05-14T17:27:43.445Z,51.97
2023-05-14T17:30:12.108Z,52.09
2023-05-14T17:32:40.327Z,52.87
2023-05-14T17:35:09.760Z,50.90
2023-05-14T17:37:37.943Z,50.97
2023-05-14T17:40:07.182Z,51.56
2023-05-14T17:42:36.498Z,51.73
2023-05-14T17:45:04.614Z,50.74
2023-05-14T17:47:33.679Z,51.87
2023-05-14T17:50:01.960Z,50.84
2023-05-14T17:52:29.829Z,50.42
2023-05-14T17:54:57.744Z,51.35
2023-05-14T17:57:26.188Z,51.59
2023-05-14T17:59:55.465Z,51.66
2023-05-14T18:02:23.633Z,51.88
2023-05-14T18:04:51.555Z,52.57
2023-05-14T18:07:20.817Z,53.11
2023-05-14T18:09:48.689Z,52.28
2023-05-14T18:12:16.619Z,51.56
2023-05-14T18:14:45.673Z,51.80
2023-05-14T18:17:15.244Z,52.21
2023-05-14T18:19:43.166Z,52.81
2023-05-14T18:22:11.075Z,53.24
2023-05-14T18:24:39.343Z,53.56
2023-05-14T18:27:07.580Z,53.31
2023-05-14T18:29:35.876Z,54.18
2023-05-14T18:32:03.769Z,55.42
2023-05-14T18:34:33.055Z,56.47
2023-05-14T18:37:01.135Z,57.09
2023-05-14T18:39:29.205Z,57.31
2023-05-14T18:41:58.012Z,57.79
2023-05-14T18:44:25.911Z,58.37
2023-05-14T18:46:55.779Z,58.72
2023-05-14T18:49:23.963Z,59.21
2023-05-14T18:51:55.152Z,59.40
2023-05-14T18:54:23.084Z,59.57
2023-05-14T18:56:50.983Z,60.04
2023-05-14T18:59:20.246Z,60.62
2023-05-14T19:01:48.900Z,60.88
2023-05-14T19:04:16.915Z,61.45
2023-05-14T19:06:45.090Z,61.77
2023-05-14T19:09:21.039Z,62.44
2023-05-14T19:11:49.024Z,62.60
2023-05-14T19:14:17.351Z,62.75
2023-05-14T19:16:45.498Z,62.55
2023-05-14T19:19:14.089Z,63.02
2023-05-14T19:21:42.358Z,63.23
2023-05-14T19:24:10.621Z,63.26
2023-05-14T19:26:40.995Z,63.58
2023-05-14T19:29:08.850Z,64.11
2023-05-14T19:31:36.760Z,64.28
2023-05-14T19:34:06.497Z,64.21
2023-05-14T19:36:34.420Z,64.59
2023-05-14T19:39:03.198Z,65.86
2023-05-14T19:41:31.128Z,66.26
2023-05-14T19:44:00.894Z,67.10
2023-05-14T19:46:28.905Z,68.02
2023-05-14T19:48:56.837Z,68.56
2023-05-14T19:51:25.353Z,69.59
2023-05-14T19:53:53.664Z,69.57
2023-05-14T19:56:23.201Z,69.36
2023-05-14T19:58:52.219Z,70.27
2023-05-14T20:01:22.120Z,70.54
2023-05-14T20:03:51.617Z,70.63
2023-05-14T20:06:19.582Z,70.39
2023-05-14T20:08:47.486Z,70.58
2023-05-14T20:11:15.853Z,70.98
2023-05-14T20:13:43.896Z,70.79
2023-05-14T20:16:16.853Z,70.59
2023-05-14T20:18:46.522Z,70.20
2023-05-14T20:21:14.789Z,70.42
2023-05-14T20:23:42.792Z,70.47
2023-05-14T20:26:10.912Z,70.11
2023-05-14T20:28:39.164Z,70.40
2023-05-14T20:31:07.265Z,71.19
2023-05-14T20:33:35.242Z,71.44
2023-05-14T20:36:05.394Z,71.72
2023-05-14T20:38:35.201Z,72.14
2023-05-14T20:41:03.752Z,71.99
2023-05-14T20:43:31.964Z,71.48
2023-05-14T20:46:00.611Z,72.10
2023-05-14T20:48:28.837Z,72.17
2023-05-14T20:50:57.054Z,72.82
2023-05-14T20:53:28.345Z,72.94
2023-05-14T20:55:56.368Z,73.25
2023-05-14T20:58:24.314Z,74.01
2023-05-14T21:00:52.474Z,73.73
2023-05-14T21:03:20.822Z,74.10
2023-05-14T21:05:48.775Z,74.20
2023-05-14T21:08:18.059Z,74.81
2023-05-14T21:10:47.725Z,74.74
2023-05-14T21:13:15.768Z,74.46
2023-05-14T21:15:43.958Z,74.59
2023-05-14T21:18:13.556Z,74.36
2023-05-14T21:20:42.150Z,75.34
2023-05-14T21:23:10.554Z,75.46
2023-05-14T21:25:38.833Z,75.90
2023-05-14T21:28:09.496Z,75.87
2023-05-14T21:30:37.415Z,75.56
2023-05-14T21:33:05.826Z,76.19
2023-05-14T21:35:34.309Z,77.17
2023-05-14T21:38:02.411Z,77.33
2023-05-14T21:40:30.804Z,77.50
2023-05-14T21:42:58.823Z,77.48
2023-05-14T21:45:28.703Z,77.84
2023-05-14T21:47:57.048Z,77.29
2023-05-14T21:50:25.120Z,77.82
2023-05-14T21:52:53.041Z,77.48
2023-05-14T21:55:21.048Z,78.11
2023-05-14T21:57:49.436Z,77.53
2023-05-14T22:00:23.306Z,76.68
2023-05-14T22:02:53.547Z,77.51
2023-05-14T22:05:22.261Z,77.61
2023-05-14T22:07:50.488Z,78.19
2023-05-14T22:10:18.825Z,78.32
2023-05-14T22:12:47.497Z,78.38
2023-05-14T22:15:15.707Z,78.31
2023-05-14T22:17:44.050Z,78.43
2023-05-14T22:20:13.934Z,79.01
2023-05-14T22:22:41.841Z,77.73
2023-05-14T22:25:10.790Z,78.05
2023-05-14T22:27:39.117Z,77.60
2023-05-14T22:30:08.561Z,77.39
2023-05-14T22:32:36.548Z,77.04
2023-05-14T22:35:05.205Z,77.86
2023-05-14T22:37:37.149Z,78.19
2023-05-14T22:40:06.222Z,78.39
2023-05-14T22:42:34.388Z,78.41
2023-05-14T22:45:02.280Z,78.89
2023-05-14T22:47:30.275Z,78.48
2023-05-14T22:49:58.364Z,77.84
2023-05-14T22:52:27.027Z,78.13
2023-05-14T22:54:56.427Z,78.08
2023-05-14T22:57:24.489Z,78.16
2023-05-14T22:59:52.704Z,78.29
2023-05-14T23:02:20.850Z,78.61
2023-05-14T23:04:49.013Z,79.41
2023-05-14T23:07:18.029Z,79.38
2023-05-14T23:09:46.223Z,79.71
2023-05-14T23:12:15.570Z,80.13
2023-05-14T23:14:43.674Z,80.11
2023-05-14T23:17:11.802Z,80.13
2023-05-14T23:19:40.086Z,79.68
2023-05-14T23:22:08.302Z,80.12
2023-05-14T23:24:36.342Z,80.10
2023-05-14T23:27:04.708Z,80.30
2023-05-14T23:29:34.101Z,80.02
2023-05-14T23:32:02.162Z,80.47
2023-05-14T23:34:30.273Z,80.74
2023-05-14T23:36:58.350Z,80.21
2023-05-14T23:39:26.390Z,80.08
2023-05-14T23:41:54.422Z,80.99
2023-05-14T23:44:22.653Z,80.52
2023-05-14T23:46:52.282Z,81.72
2023-05-14T23:49:21.005Z,81.09
2023-05-14T23:51:48.884Z,81.74
2023-05-14T23:54:17.469Z,80.88
2023-05-14T23:56:45.552Z,81.23
2023-05-14T23:59:13.813Z,80.79
